Flight Track Log - Related Links

Times and Time Zones

All times are in EDT time to prevent confusion due to time zone crossing. See the ASA864 flight status page for this flight to view local times or setup timezone preferences in your user account.

Time Position Orientation Groundspeed Altitude Reporting Facility
EDT Latitude Longitude Course Direction KTS MPH feet Rate Location/Type
Wed 02:13:08 PM 21.3167 -157.8833 148° Southeast 190 219 1,300  Level Honolulu Center
Wed 02:14:09 PM 21.2667 -157.8500 148° Southeast 240 276 3,100 1,736 Climbing Honolulu Center
Wed 02:15:09 PM 21.2000 -157.8167 155° Southeast 270 311 4,800 1,750 Climbing Honolulu Center
Wed 02:16:09 PM 21.2000 -157.7333 90° East 280 322 6,600 1,750 Climbing Honolulu Center
Wed 02:17:09 PM 21.2333 -157.6500 67° East 300 345 8,300 1,800 Climbing Honolulu Center
Wed 02:18:09 PM 21.3000 -157.6000 35° Northeast 310 357 10,200 1,650 Climbing Honolulu Center
Wed 02:19:09 PM 21.3833 -157.5667 20° North 330 380 11,600 1,800 Climbing Honolulu Center
Wed 02:20:09 PM 21.4667 -157.5167 29° Northeast 350 403 13,800 2,200 Climbing Honolulu Center
Wed 02:21:09 PM 21.5500 -157.4667 29° Northeast 360 414 16,000 2,033 Climbing Honolulu Center
Wed 02:22:10 PM 21.6500 -157.4167 25° Northeast 370 426 17,900 1,900 Climbing Honolulu Center
Wed 02:23:09 PM 21.7333 -157.3667 29° Northeast 380 437 19,800 1,750 Climbing Honolulu Center
Wed 02:24:10 PM 21.8333 -157.3000 32° Northeast 400 460 21,400 1,091 Climbing Honolulu Center
Wed 02:25:10 PM 21.9167 -157.2000 48° Northeast 420 483 22,000 600 Climbing Honolulu Center
Wed 02:26:10 PM 22.0000 -157.1167 43° Northeast 450 518 22,600 850 Climbing Honolulu Center
Wed 02:27:10 PM 22.1000 -157.0167 43° Northeast 470 541 23,700 1,200 Climbing Honolulu Center
Wed 02:28:10 PM 22.2000 -156.9167 43° Northeast 480 552 25,000 1,100 Climbing Honolulu Center
Wed 02:29:10 PM 22.3000 -156.8167 43° Northeast 490 564 25,900 900 Climbing Honolulu Center
Wed 02:30:10 PM 22.4000 -156.7500 32° Northeast 500 575 26,800 1,150 Climbing Honolulu Center
Wed 02:31:10 PM 22.5500 -156.7333 North 480 552 28,200 1,537 Climbing Honolulu Center
Wed 02:32:11 PM 22.6833 -156.7167 North 480 552 29,900 1,537 Climbing Honolulu Center
Wed 02:33:11 PM 22.8167 -156.7000 North 470 541 31,300 1,250 Climbing Honolulu Center
Wed 02:34:11 PM 22.9333 -156.6833 North 460 529 32,400 1,000 Climbing Honolulu Center
Wed 02:35:11 PM 23.0667 -156.6667 North 460 529 33,300 850 Climbing Honolulu Center
Wed 02:36:11 PM 23.2000 -156.6500 North 450 518 34,100 850 Climbing Honolulu Center
Wed 02:37:11 PM 23.3167 -156.6500 360° North 450 518 35,000 450 Climbing Honolulu Center
Wed 02:38:11 PM 23.4500 -156.6333 North 450 518 35,000  Level Honolulu Center
Wed 02:39:11 PM 23.5667 -156.6167 North 450 518 35,000  Level Honolulu Center
Wed 02:40:11 PM 23.7000 -156.6000 North 450 518 35,000  Level Honolulu Center
Wed 02:41:11 PM 23.8167 -156.5833 North 450 518 35,000  Level Honolulu Center
Wed 02:44:00 PM 24.0443 -156.5551 North  Level FlightAware Approximate
Wed 02:51:00 PM 24.9296 -156.4445 North  Level FlightAware Approximate
Wed 02:52:00 PM 25.0560 -156.4285 North  Level FlightAware Approximate
Wed 02:53:00 PM 25.1827 -156.4167 North  Level FlightAware Approximate
Wed 02:54:00 PM 25.2776 -156.3232 42° Northeast  Level FlightAware Approximate
Wed 02:54:39 PM 25.2000 -156.4167 42° Northeast 475 547 35,000  Level Oakland Oceanic (ODAPS)
Wed 02:55:00 PM 25.3723 -156.2290 42° Northeast  Level FlightAware Approximate
Wed 02:56:00 PM 25.4669 -156.1348 42° Northeast  Level FlightAware Approximate
Wed 02:57:00 PM 25.5614 -156.0403 42° Northeast  Level FlightAware Approximate
Wed 02:58:00 PM 25.6552 -155.9465 42° Northeast  Level FlightAware Approximate
Wed 02:59:00 PM 25.7491 -155.8522 42° Northeast  Level FlightAware Approximate
Wed 03:00:00 PM 25.8430 -155.7579 42° Northeast  Level FlightAware Approximate
Wed 03:01:00 PM 26.0822 -155.5333 42° Northeast 475 547 35,000  Level FlightAware Transoceanic
Wed 03:02:00 PM 26.1799 -155.4343 42° Northeast 475 547 35,000  Level FlightAware Transoceanic
Wed 03:03:00 PM 26.2776 -155.3352 42° Northeast 475 547 35,000  Level FlightAware Transoceanic
Wed 03:04:00 PM 26.3751 -155.2359 42° Northeast 475 547 35,000  Level FlightAware Transoceanic
Wed 03:05:00 PM 26.4726 -155.1364 42° Northeast 475 547 35,000  Level FlightAware Transoceanic
Wed 03:06:00 PM 26.5700 -155.0368 42° Northeast 475 547 35,000  Level FlightAware Transoceanic
Wed 03:07:00 PM 26.6674 -154.9370 43° Northeast 475 547 35,000  Level FlightAware Transoceanic
Wed 03:08:00 PM 26.7647 -154.8370 43° Northeast 475 547 35,000  Level FlightAware Transoceanic
Wed 03:09:00 PM 26.8619 -154.7369 43° Northeast 475 547 35,000  Level FlightAware Transoceanic
Wed 03:10:00 PM 26.9590 -154.6365 43° Northeast 475 547 35,000  Level FlightAware Transoceanic
Wed 03:11:00 PM 27.0561 -154.5361 43° Northeast 475 547 35,000  Level FlightAware Transoceanic
Wed 03:12:00 PM 27.1531 -154.4354 43° Northeast 475 547 35,000  Level FlightAware Transoceanic
Wed 03:13:00 PM 27.2500 -154.3345 43° Northeast 475 547 35,000  Level FlightAware Transoceanic
Wed 03:14:00 PM 27.3469 -154.2335 43° Northeast 475 547 35,000  Level FlightAware Transoceanic
Wed 03:15:00 PM 27.4437 -154.1323 43° Northeast 475 547 35,000  Level FlightAware Transoceanic
Wed 03:16:00 PM 27.5404 -154.0310 43° Northeast 475 547 35,000  Level FlightAware Transoceanic
Wed 03:17:00 PM 27.6370 -153.9294 43° Northeast 475 547 35,000  Level FlightAware Transoceanic
Wed 03:18:00 PM 27.7336 -153.8277 43° Northeast 475 547 35,000  Level FlightAware Transoceanic
Wed 03:19:00 PM 27.8300 -153.7258 43° Northeast 475 547 35,000  Level FlightAware Transoceanic
Wed 03:20:00 PM 27.9265 -153.6237 43° Northeast 475 547 35,000  Level FlightAware Transoceanic
Wed 03:21:00 PM 28.0228 -153.5214 43° Northeast 475 547 35,000  Level FlightAware Transoceanic
Wed 03:22:00 PM 28.1191 -153.4189 43° Northeast 475 547 35,000  Level FlightAware Transoceanic
Wed 03:23:00 PM 28.2152 -153.3163 43° Northeast 475 547 35,000  Level FlightAware Transoceanic
Wed 03:24:00 PM 28.3113 -153.2135 43° Northeast 475 547 35,000  Level FlightAware Transoceanic
Wed 03:25:00 PM 28.4074 -153.1105 43° Northeast 475 547 35,000  Level FlightAware Transoceanic
Wed 03:26:00 PM 28.5033 -153.0073 43° Northeast 475 547 35,000  Level FlightAware Transoceanic
Wed 03:27:00 PM 28.5992 -152.9039 43° Northeast 475 547 35,000  Level FlightAware Transoceanic
Wed 03:28:00 PM 28.6950 -152.8003 44° Northeast 475 547 35,000  Level FlightAware Transoceanic
Wed 03:29:00 PM 28.7907 -152.6965 44° Northeast 475 547 35,000  Level FlightAware Transoceanic
Wed 03:30:00 PM 28.8864 -152.5926 44° Northeast 475 547 35,000  Level FlightAware Transoceanic
Wed 03:31:00 PM 28.9819 -152.4884 44° Northeast 475 547 35,000  Level FlightAware Transoceanic
Wed 03:32:00 PM 29.0774 -152.3841 44° Northeast 475 547 35,000  Level FlightAware Transoceanic
Wed 03:33:00 PM 29.1728 -152.2796 44° Northeast 475 547 35,000  Level FlightAware Transoceanic
Wed 03:34:00 PM 29.2681 -152.1748 44° Northeast 475 547 35,000  Level FlightAware Transoceanic
Wed 03:35:00 PM 29.3633 -152.0699 44° Northeast 475 547 35,000  Level FlightAware Transoceanic
Wed 03:36:00 PM 29.4585 -151.9648 44° Northeast 475 547 35,000  Level FlightAware Transoceanic
Wed 03:37:00 PM 29.5536 -151.8595 44° Northeast 475 547 35,000  Level FlightAware Transoceanic
Wed 03:38:00 PM 29.6485 -151.7540 44° Northeast 475 547 35,000  Level FlightAware Transoceanic
Wed 03:39:00 PM 29.7434 -151.6483 44° Northeast 475 547 35,000  Level FlightAware Transoceanic
Wed 03:40:00 PM 29.8382 -151.5423 44° Northeast 475 547 35,000  Level FlightAware Transoceanic
Wed 03:41:00 PM 29.9330 -151.4362 44° Northeast 475 547 35,000  Level FlightAware Transoceanic
Wed 03:42:00 PM 30.0276 -151.3299 44° Northeast 475 547 35,000  Level FlightAware Transoceanic
Wed 03:43:00 PM 30.1222 -151.2234 44° Northeast 475 547 35,000  Level FlightAware Transoceanic
Wed 03:44:00 PM 30.2167 -151.1167 44° Northeast 475 547 35,000  Level FlightAware Transoceanic
Wed 03:45:00 PM 30.3130 -151.0074 44° Northeast 475 547 35,000  Level FlightAware Transoceanic
Wed 03:46:00 PM 30.4092 -150.8980 44° Northeast 475 547 35,000  Level FlightAware Transoceanic
Wed 03:46:57 PM 30.2167 -151.1167 44° Northeast 485 558 35,000  Level Oakland Oceanic (ODAPS)
Wed 03:47:00 PM 30.5053 -150.7883 45° Northeast 475 547 35,000  Level FlightAware Transoceanic
Wed 03:48:00 PM 30.6013 -150.6785 45° Northeast 475 547 35,000  Level FlightAware Transoceanic
Wed 03:49:00 PM 30.6972 -150.5684 45° Northeast 475 547 35,000  Level FlightAware Transoceanic
Wed 03:50:00 PM 30.7931 -150.4581 45° Northeast 475 547 35,000  Level FlightAware Transoceanic
Wed 03:51:00 PM 30.8888 -150.3475 45° Northeast 475 547 35,000  Level FlightAware Transoceanic
Wed 03:52:00 PM 30.9844 -150.2368 45° Northeast 475 547 35,000  Level FlightAware Transoceanic
Wed 03:53:00 PM 30.9844 -150.2368 45° Northeast 485 558 35,000  Level FlightAware Transoceanic
Wed 03:54:00 PM 31.0800 -150.1258 45° Northeast 485 558 35,000  Level FlightAware Transoceanic
Wed 03:55:00 PM 31.1754 -150.0146 45° Northeast 485 558 35,000  Level FlightAware Transoceanic
Wed 03:56:00 PM 31.2708 -149.9032 45° Northeast 485 558 35,000  Level FlightAware Transoceanic
Wed 03:57:00 PM 31.3661 -149.7916 45° Northeast 485 558 35,000  Level FlightAware Transoceanic
Wed 03:58:00 PM 31.4612 -149.6797 45° Northeast 485 558 35,000  Level FlightAware Transoceanic
Wed 03:59:00 PM 31.5563 -149.5676 45° Northeast 485 558 35,000  Level FlightAware Transoceanic
Wed 04:00:00 PM 31.6513 -149.4553 45° Northeast 485 558 35,000  Level FlightAware Transoceanic
Wed 04:01:00 PM 31.7461 -149.3427 45° Northeast 485 558 35,000  Level FlightAware Transoceanic
Wed 04:02:00 PM 31.8409 -149.2299 45° Northeast 485 558 35,000  Level FlightAware Transoceanic
Wed 04:03:00 PM 31.9356 -149.1169 45° Northeast 485 558 35,000  Level FlightAware Transoceanic
Wed 04:04:00 PM 32.0302 -149.0037 45° Northeast 485 558 35,000  Level FlightAware Transoceanic
Wed 04:05:00 PM 32.1246 -148.8902 46° Northeast 485 558 35,000  Level FlightAware Transoceanic
Wed 04:06:00 PM 32.2190 -148.7765 46° Northeast 485 558 35,000  Level FlightAware Transoceanic
Wed 04:07:00 PM 32.3133 -148.6625 46° Northeast 485 558 35,000  Level FlightAware Transoceanic
Wed 04:08:00 PM 32.4075 -148.5483 46° Northeast 485 558 35,000  Level FlightAware Transoceanic
Wed 04:09:00 PM 32.5015 -148.4339 46° Northeast 485 558 35,000  Level FlightAware Transoceanic
Wed 04:10:00 PM 32.5955 -148.3192 46° Northeast 485 558 35,000  Level FlightAware Transoceanic
Wed 04:11:00 PM 32.6893 -148.2043 46° Northeast 485 558 35,000  Level FlightAware Transoceanic
Wed 04:12:00 PM 32.7831 -148.0891 46° Northeast 485 558 35,000  Level FlightAware Transoceanic
Wed 04:13:00 PM 32.8767 -147.9737 46° Northeast 485 558 35,000  Level FlightAware Transoceanic
Wed 04:14:00 PM 32.9703 -147.8581 46° Northeast 485 558 35,000  Level FlightAware Transoceanic
Wed 04:15:00 PM 33.0637 -147.7422 46° Northeast 485 558 35,000  Level FlightAware Transoceanic
Wed 04:16:00 PM 33.1570 -147.6261 46° Northeast 485 558 35,000  Level FlightAware Transoceanic
Wed 04:17:00 PM 33.2502 -147.5097 46° Northeast 485 558 35,000  Level FlightAware Transoceanic
Wed 04:18:00 PM 33.3433 -147.3931 46° Northeast 485 558 35,000  Level FlightAware Transoceanic
Wed 04:19:00 PM 33.4364 -147.2762 46° Northeast 485 558 35,000  Level FlightAware Transoceanic
Wed 04:20:00 PM 33.5292 -147.1591 46° Northeast 485 558 35,000  Level FlightAware Transoceanic
Wed 04:21:00 PM 33.6220 -147.0417 47° Northeast 485 558 35,000  Level FlightAware Transoceanic
Wed 04:22:00 PM 33.7147 -146.9241 47° Northeast 485 558 35,000  Level FlightAware Transoceanic
Wed 04:23:00 PM 33.8072 -146.8062 47° Northeast 485 558 35,000  Level FlightAware Transoceanic
Wed 04:24:00 PM 33.8997 -146.6880 47° Northeast 485 558 35,000  Level FlightAware Transoceanic
Wed 04:25:00 PM 33.9920 -146.5696 47° Northeast 485 558 35,000  Level FlightAware Transoceanic
Wed 04:26:00 PM 34.0842 -146.4510 47° Northeast 485 558 35,000  Level FlightAware Transoceanic
Wed 04:27:00 PM 34.1763 -146.3320 47° Northeast 485 558 35,000  Level FlightAware Transoceanic
Wed 04:28:00 PM 34.2683 -146.2129 47° Northeast 485 558 35,000  Level FlightAware Transoceanic
Wed 04:29:00 PM 34.3602 -146.0934 47° Northeast 485 558 35,000  Level FlightAware Transoceanic
Wed 04:30:00 PM 34.4520 -145.9738 47° Northeast 485 558 35,000  Level FlightAware Transoceanic
Wed 04:31:00 PM 34.5436 -145.8538 47° Northeast 485 558 35,000  Level FlightAware Transoceanic
Wed 04:32:00 PM 34.6351 -145.7336 47° Northeast 485 558 35,000  Level FlightAware Transoceanic
Wed 04:33:00 PM 34.7265 -145.6131 47° Northeast 485 558 35,000  Level FlightAware Transoceanic
Wed 04:34:00 PM 34.8178 -145.4923 47° Northeast 485 558 35,000  Level FlightAware Transoceanic
Wed 04:35:00 PM 34.9090 -145.3713 47° Northeast 485 558 35,000  Level FlightAware Transoceanic
Wed 04:36:00 PM 35.0000 -145.2500 48° Northeast 485 558 35,000  Level FlightAware Transoceanic
Wed 04:37:00 PM 35.0877 -145.1325 48° Northeast 485 558 35,000  Level FlightAware Transoceanic
Wed 04:38:00 PM 35.1753 -145.0147 48° Northeast 485 558 35,000  Level FlightAware Transoceanic
Wed 04:38:56 PM 35.0000 -145.2500 48° Northeast 476 548 35,000  Level Oakland Oceanic (ODAPS)
Wed 04:39:00 PM 35.2629 -144.8967 48° Northeast 485 558 35,000  Level FlightAware Transoceanic
Wed 04:40:00 PM 35.3502 -144.7784 48° Northeast 485 558 35,000  Level FlightAware Transoceanic
Wed 04:41:00 PM 35.4375 -144.6598 48° Northeast 485 558 35,000  Level FlightAware Transoceanic
Wed 04:42:00 PM 35.5247 -144.5410 48° Northeast 485 558 35,000  Level FlightAware Transoceanic
Wed 04:43:00 PM 35.6117 -144.4220 48° Northeast 485 558 35,000  Level FlightAware Transoceanic
Wed 04:44:00 PM 35.6986 -144.3026 48° Northeast 485 558 35,000  Level FlightAware Transoceanic
Wed 04:45:00 PM 35.7994 -144.1638 48° Northeast 476 548 35,000  Level FlightAware Transoceanic
Wed 04:46:00 PM 35.8876 -144.0418 48° Northeast 476 548 35,000  Level FlightAware Transoceanic
Wed 04:47:00 PM 35.9757 -143.9195 48° Northeast 476 548 35,000  Level FlightAware Transoceanic
Wed 04:48:00 PM 36.0636 -143.7969 48° Northeast 476 548 35,000  Level FlightAware Transoceanic
Wed 04:49:00 PM 36.1515 -143.6741 49° Northeast 476 548 35,000  Level FlightAware Transoceanic
Wed 04:50:00 PM 36.2392 -143.5510 49° Northeast 476 548 35,000  Level FlightAware Transoceanic
Wed 04:51:00 PM 36.3268 -143.4276 49° Northeast 476 548 35,000  Level FlightAware Transoceanic
Wed 04:52:00 PM 36.4142 -143.3039 49° Northeast 476 548 35,000  Level FlightAware Transoceanic
Wed 04:53:00 PM 36.5015 -143.1799 49° Northeast 476 548 35,000  Level FlightAware Transoceanic
Wed 04:54:00 PM 36.5887 -143.0557 49° Northeast 476 548 35,000  Level FlightAware Transoceanic
Wed 04:55:00 PM 36.6758 -142.9312 49° Northeast 476 548 35,000  Level FlightAware Transoceanic
Wed 04:56:00 PM 36.7628 -142.8064 49° Northeast 476 548 35,000  Level FlightAware Transoceanic
Wed 04:57:00 PM 36.8496 -142.6813 49° Northeast 476 548 35,000  Level FlightAware Transoceanic
Wed 04:58:00 PM 36.9363 -142.5560 49° Northeast 476 548 35,000  Level FlightAware Transoceanic
Wed 04:59:00 PM 37.0228 -142.4303 49° Northeast 476 548 35,000  Level FlightAware Transoceanic
Wed 05:00:00 PM 37.1092 -142.3044 49° Northeast 476 548 35,000  Level FlightAware Transoceanic
Wed 05:01:00 PM 37.1955 -142.1782 49° Northeast 476 548 35,000  Level FlightAware Transoceanic
Wed 05:02:00 PM 37.2817 -142.0517 49° Northeast 476 548 35,000  Level FlightAware Transoceanic
Wed 05:03:00 PM 37.3677 -141.9249 50° Northeast 476 548 35,000  Level FlightAware Transoceanic
Wed 05:04:00 PM 37.4536 -141.7978 50° Northeast 476 548 35,000  Level FlightAware Transoceanic
Wed 05:05:00 PM 37.5393 -141.6704 50° Northeast 476 548 35,000  Level FlightAware Transoceanic
Wed 05:06:00 PM 37.6249 -141.5427 50° Northeast 476 548 35,000  Level FlightAware Transoceanic
Wed 05:07:00 PM 37.7104 -141.4147 50° Northeast 476 548 35,000  Level FlightAware Transoceanic
Wed 05:08:00 PM 37.7957 -141.2865 50° Northeast 476 548 35,000  Level FlightAware Transoceanic
Wed 05:09:00 PM 37.8809 -141.1579 50° Northeast 476 548 35,000  Level FlightAware Transoceanic
Wed 05:10:00 PM 37.9659 -141.0291 50° Northeast 476 548 35,000  Level FlightAware Transoceanic
Wed 05:11:00 PM 38.0508 -140.8999 50° Northeast 476 548 35,000  Level FlightAware Transoceanic
Wed 05:12:00 PM 38.1356 -140.7704 50° Northeast 476 548 35,000  Level FlightAware Transoceanic
Wed 05:13:00 PM 38.2202 -140.6407 50° Northeast 476 548 35,000  Level FlightAware Transoceanic
Wed 05:14:00 PM 38.3047 -140.5106 50° Northeast 476 548 35,000  Level FlightAware Transoceanic
Wed 05:15:00 PM 38.3891 -140.3803 51° Northeast 476 548 35,000  Level FlightAware Transoceanic
Wed 05:16:00 PM 38.4733 -140.2496 51° Northeast 476 548 35,000  Level FlightAware Transoceanic
Wed 05:17:00 PM 38.5573 -140.1186 51° Northeast 476 548 35,000  Level FlightAware Transoceanic
Wed 05:18:00 PM 38.6412 -139.9874 51° Northeast 476 548 35,000  Level FlightAware Transoceanic
Wed 05:19:00 PM 38.7249 -139.8558 51° Northeast 476 548 35,000  Level FlightAware Transoceanic
Wed 05:20:00 PM 38.8086 -139.7239 51° Northeast 476 548 35,000  Level FlightAware Transoceanic
Wed 05:21:00 PM 38.8920 -139.5917 51° Northeast 476 548 35,000  Level FlightAware Transoceanic
Wed 05:22:00 PM 38.9753 -139.4592 51° Northeast 476 548 35,000  Level FlightAware Transoceanic
Wed 05:23:00 PM 39.0585 -139.3263 51° Northeast 476 548 35,000  Level FlightAware Transoceanic
Wed 05:24:00 PM 39.1415 -139.1932 51° Northeast 476 548 35,000  Level FlightAware Transoceanic
Wed 05:25:00 PM 39.2243 -139.0597 51° Northeast 476 548 35,000  Level FlightAware Transoceanic
Wed 05:26:00 PM 39.3070 -138.9260 51° Northeast 476 548 35,000  Level FlightAware Transoceanic
Wed 05:27:00 PM 39.3896 -138.7919 52° Northeast 476 548 35,000  Level FlightAware Transoceanic
Wed 05:28:00 PM 39.4720 -138.6575 52° Northeast 476 548 35,000  Level FlightAware Transoceanic
Wed 05:29:00 PM 39.5542 -138.5228 52° Northeast 476 548 35,000  Level FlightAware Transoceanic
Wed 05:30:00 PM 39.6363 -138.3877 52° Northeast 476 548 35,000  Level FlightAware Transoceanic
Wed 05:31:00 PM 39.7182 -138.2523 52° Northeast 476 548 35,000  Level FlightAware Transoceanic
Wed 05:32:00 PM 39.8000 -138.1167 52° Northeast 476 548 35,000  Level FlightAware Transoceanic
Wed 05:33:00 PM 39.8762 -137.9899 52° Northeast 476 548 35,000  Level FlightAware Transoceanic
Wed 05:34:00 PM 39.9522 -137.8628 52° Northeast 476 548 35,000  Level FlightAware Transoceanic
Wed 05:35:00 PM 40.0281 -137.7355 52° Northeast 476 548 35,000 690 Level FlightAware Transoceanic
Wed 05:35:27 PM 39.8000 -138.1167 52° Northeast 446 513 36,000  Climbing Oakland Oceanic (ODAPS)
Wed 05:36:00 PM 40.1038 -137.6079 52° Northeast 476 548 35,000 -645 Descending FlightAware Transoceanic
Wed 05:37:00 PM 40.1794 -137.4800 52° Northeast 476 548 35,000  Level FlightAware Transoceanic
Wed 05:38:00 PM 40.2549 -137.3518 52° Northeast 476 548 35,000  Level FlightAware Transoceanic
Wed 05:39:00 PM 40.3302 -137.2233 52° Northeast 476 548 35,000  Level FlightAware Transoceanic
Wed 05:40:00 PM 40.4054 -137.0945 53° Northeast 476 548 35,000 500 Level FlightAware Transoceanic
Wed 05:41:00 PM 40.3302 -137.2233 52° Northeast 446 513 36,000 500 Climbing FlightAware Transoceanic
Wed 05:42:00 PM 40.4054 -137.0945 53° Northeast 446 513 36,000  Level FlightAware Transoceanic
Wed 05:43:00 PM 40.4804 -136.9655 53° Northeast 446 513 36,000  Level FlightAware Transoceanic
Wed 05:44:00 PM 40.5553 -136.8361 53° Northeast 446 513 36,000  Level FlightAware Transoceanic
Wed 05:45:00 PM 40.6300 -136.7065 53° Northeast 446 513 36,000  Level FlightAware Transoceanic
Wed 05:46:00 PM 40.7046 -136.5766 53° Northeast 446 513 36,000  Level FlightAware Transoceanic
Wed 05:47:00 PM 40.7791 -136.4464 53° Northeast 446 513 36,000  Level FlightAware Transoceanic
Wed 05:48:00 PM 40.8534 -136.3159 53° Northeast 446 513 36,000  Level FlightAware Transoceanic
Wed 05:49:00 PM 40.9275 -136.1851 53° Northeast 446 513 36,000  Level FlightAware Transoceanic
Wed 05:50:00 PM 41.0015 -136.0540 53° Northeast 446 513 36,000  Level FlightAware Transoceanic
Wed 05:51:00 PM 41.0754 -135.9226 53° Northeast 446 513 36,000  Level FlightAware Transoceanic
Wed 05:52:00 PM 41.1491 -135.7909 53° Northeast 446 513 36,000  Level FlightAware Transoceanic
Wed 05:53:00 PM 41.2227 -135.6590 54° Northeast 446 513 36,000  Level FlightAware Transoceanic
Wed 05:54:00 PM 41.2961 -135.5267 54° Northeast 446 513 36,000  Level FlightAware Transoceanic
Wed 05:55:00 PM 41.3694 -135.3941 54° Northeast 446 513 36,000  Level FlightAware Transoceanic
Wed 05:56:00 PM 41.4425 -135.2612 54° Northeast 446 513 36,000  Level FlightAware Transoceanic
Wed 05:57:00 PM 41.5154 -135.1281 54° Northeast 446 513 36,000  Level FlightAware Transoceanic
Wed 05:58:00 PM 41.5882 -134.9946 54° Northeast 446 513 36,000  Level FlightAware Transoceanic
Wed 05:59:00 PM 41.6609 -134.8608 54° Northeast 446 513 36,000  Level FlightAware Transoceanic
Wed 06:00:00 PM 41.7333 -134.7268 54° Northeast 446 513 36,000  Level FlightAware Transoceanic
Wed 06:01:00 PM 41.8057 -134.5924 54° Northeast 446 513 36,000  Level FlightAware Transoceanic
Wed 06:02:00 PM 41.8779 -134.4577 54° Northeast 446 513 36,000  Level FlightAware Transoceanic
Wed 06:03:00 PM 41.9499 -134.3227 54° Northeast 446 513 36,000  Level FlightAware Transoceanic
Wed 06:04:00 PM 42.0217 -134.1875 54° Northeast 446 513 36,000  Level FlightAware Transoceanic
Wed 06:05:00 PM 42.0934 -134.0519 55° Northeast 446 513 36,000  Level FlightAware Transoceanic
Wed 06:06:00 PM 42.1650 -133.9160 55° Northeast 446 513 36,000  Level FlightAware Transoceanic
Wed 06:07:00 PM 42.2364 -133.7798 55° Northeast 446 513 36,000  Level FlightAware Transoceanic
Wed 06:08:00 PM 42.3076 -133.6432 55° Northeast 446 513 36,000  Level FlightAware Transoceanic
Wed 06:09:00 PM 42.3786 -133.5064 55° Northeast 446 513 36,000  Level FlightAware Transoceanic
Wed 06:10:00 PM 42.4495 -133.3693 55° Northeast 446 513 36,000  Level FlightAware Transoceanic
Wed 06:11:00 PM 42.5203 -133.2319 55° Northeast 446 513 36,000  Level FlightAware Transoceanic
Wed 06:12:00 PM 42.5908 -133.0941 55° Northeast 446 513 36,000  Level FlightAware Transoceanic
Wed 06:13:00 PM 42.6612 -132.9560 55° Northeast 446 513 36,000  Level FlightAware Transoceanic
Wed 06:14:00 PM 42.7315 -132.8177 55° Northeast 446 513 36,000  Level FlightAware Transoceanic
Wed 06:15:00 PM 42.8015 -132.6790 56° Northeast 446 513 36,000  Level FlightAware Transoceanic
Wed 06:16:00 PM 42.8714 -132.5399 56° Northeast 446 513 36,000  Level FlightAware Transoceanic
Wed 06:17:00 PM 42.9412 -132.4006 56° Northeast 446 513 36,000  Level FlightAware Transoceanic
Wed 06:18:00 PM 43.0107 -132.2610 56° Northeast 446 513 36,000  Level FlightAware Transoceanic
Wed 06:19:00 PM 43.0801 -132.1210 56° Northeast 446 513 36,000  Level FlightAware Transoceanic
Wed 06:20:00 PM 43.1493 -131.9808 56° Northeast 446 513 36,000  Level FlightAware Transoceanic
Wed 06:21:00 PM 43.2184 -131.8402 56° Northeast 446 513 36,000  Level FlightAware Transoceanic
Wed 06:22:00 PM 43.2873 -131.6993 56° Northeast 446 513 36,000  Level FlightAware Transoceanic
Wed 06:23:00 PM 43.3559 -131.5580 56° Northeast 446 513 36,000  Level FlightAware Transoceanic
Wed 06:24:00 PM 43.4245 -131.4165 56° Northeast 446 513 36,000  Level FlightAware Transoceanic
Wed 06:25:00 PM 43.4928 -131.2746 56° Northeast 446 513 36,000  Level FlightAware Transoceanic
Wed 06:26:00 PM 43.5610 -131.1325 57° Northeast 446 513 36,000  Level FlightAware Transoceanic
Wed 06:27:00 PM 43.6290 -130.9899 57° Northeast 446 513 36,000  Level FlightAware Transoceanic
Wed 06:28:00 PM 43.6968 -130.8471 57° Northeast 446 513 36,000  Level FlightAware Transoceanic
Wed 06:29:00 PM 43.7645 -130.7040 57° Northeast 446 513 36,000  Level FlightAware Transoceanic
Wed 06:30:00 PM 43.8319 -130.5605 57° Northeast 446 513 36,000  Level FlightAware Transoceanic
Wed 06:31:00 PM 43.8992 -130.4167 57° Northeast 446 513 36,000  Level FlightAware Transoceanic
Wed 06:32:00 PM 43.9663 -130.2726 57° Northeast 446 513 36,000  Level FlightAware Transoceanic
Wed 06:33:00 PM 44.0333 -130.1281 57° Northeast 446 513 36,000  Level FlightAware Transoceanic
Wed 06:34:00 PM 44.1000 -129.9833 58° Northeast 446 513 36,000  Level FlightAware Transoceanic
Wed 06:35:00 PM 44.1656 -129.8383 58° Northeast 446 513 36,000  Level FlightAware Transoceanic
Wed 06:36:00 PM 44.2311 -129.6929 58° Northeast 446 513 36,000 536 Level FlightAware Transoceanic
Wed 06:36:52 PM 44.1000 -129.9833 58° Northeast 425 489 37,000  Climbing Oakland Oceanic (ODAPS)
Wed 06:37:00 PM 44.2963 -129.5472 58° Northeast 446 513 36,000 -882 Descending FlightAware Transoceanic
Wed 06:38:00 PM 44.3614 -129.4012 58° Northeast 446 513 36,000  Level FlightAware Transoceanic
Wed 06:39:00 PM 44.4263 -129.2548 58° Northeast 446 513 36,000  Level FlightAware Transoceanic
Wed 06:40:00 PM 44.4910 -129.1081 58° Northeast 446 513 36,000  Level FlightAware Transoceanic
Wed 06:41:00 PM 44.5555 -128.9611 58° Northeast 446 513 36,000  Level FlightAware Transoceanic
Wed 06:42:00 PM 44.6198 -128.8138 59° Northeast 446 513 36,000 500 Level FlightAware Transoceanic
Wed 06:43:00 PM 44.6589 -128.7239 59° Northeast 425 489 37,000 500 Climbing FlightAware Transoceanic
Wed 06:44:00 PM 44.7201 -128.5825 59° Northeast 425 489 37,000  Level FlightAware Transoceanic
Wed 06:45:00 PM 44.7812 -128.4408 59° Northeast 425 489 37,000  Level FlightAware Transoceanic
Wed 06:46:00 PM 44.8421 -128.2988 59° Northeast 425 489 37,000  Level FlightAware Transoceanic
Wed 06:47:00 PM 44.9028 -128.1564 59° Northeast 425 489 37,000  Level FlightAware Transoceanic
Wed 06:48:00 PM 44.9633 -128.0138 59° Northeast 425 489 37,000  Level FlightAware Transoceanic
Wed 06:49:00 PM 45.0237 -127.8709 59° Northeast 425 489 37,000  Level FlightAware Transoceanic
Wed 06:49:04 PM 45.0119 -127.8781 60° Northeast 442 509 37,000  Level Seattle Center
Wed 06:50:00 PM 45.0838 -127.7277 59° Northeast 425 489 37,000  Level FlightAware Transoceanic
Wed 06:50:05 PM 45.0775 -127.7314 58° Northeast 442 509 37,000  Level Seattle Center
Wed 06:51:00 PM 45.1438 -127.5842 59° Northeast 425 489 37,000  Level FlightAware Transoceanic
Wed 06:51:06 PM 45.1417 -127.5822 59° Northeast 442 509 37,000  Level Seattle Center
Wed 06:52:00 PM 45.2037 -127.4403 60° Northeast 425 489 37,000  Level FlightAware Transoceanic
Wed 06:52:07 PM 45.2039 -127.4350 59° Northeast 440 506 37,000  Level Seattle Center
Wed 06:53:00 PM 45.2633 -127.2962 60° Northeast 425 489 37,000  Level FlightAware Transoceanic
Wed 06:53:08 PM 45.2672 -127.2842 59° Northeast 445 512 37,000  Level Seattle Center
Wed 06:54:00 PM 45.3227 -127.1518 60° Northeast 425 489 37,000  Level FlightAware Transoceanic
Wed 06:54:09 PM 45.3308 -127.1358 59° Northeast 443 510 37,000  Level Seattle Center
Wed 06:55:10 PM 45.3942 -126.9889 58° Northeast 438 504 37,000  Level Seattle Center
Wed 06:56:11 PM 45.4553 -126.8403 60° Northeast 436 502 37,000  Level Seattle Center
Wed 06:57:12 PM 45.5339 -126.6672 57° Northeast 435 501 37,000  Level Seattle Center
Wed 06:58:13 PM 45.6094 -126.5364 50° Northeast 429 494 37,000  Level Seattle Center
Wed 06:59:14 PM 45.6819 -126.4025 52° Northeast 428 493 37,000  Level Seattle Center
Wed 07:00:15 PM 45.7561 -126.2694 51° Northeast 428 493 37,000  Level Seattle Center
Wed 07:01:16 PM 45.8317 -126.1344 51° Northeast 433 498 37,000  Level Seattle Center
Wed 07:02:17 PM 45.9075 -125.9983 51° Northeast 436 502 37,000  Level Seattle Center
Wed 07:03:18 PM 45.9825 -125.8608 52° Northeast 437 503 37,000  Level Seattle Center
Wed 07:04:19 PM 46.0572 -125.7233 52° Northeast 438 504 37,000  Level Seattle Center
Wed 07:05:20 PM 46.1306 -125.5875 52° Northeast 432 497 37,000  Level Seattle Center
Wed 07:06:22 PM 46.2053 -125.4522 51° Northeast 431 496 37,000  Level Seattle Center
Wed 07:07:23 PM 46.2781 -125.3150 52° Northeast 431 496 37,000  Level Seattle Center
Wed 07:08:24 PM 46.3522 -125.1761 52° Northeast 435 501 37,000  Level Seattle Center
Wed 07:09:25 PM 46.4192 -125.0097 60° Northeast 444 511 37,000  Level Seattle Center
Wed 07:10:26 PM 46.4503 -124.8369 75° East 448 516 37,000  Level Seattle Center
Wed 07:11:27 PM 46.4811 -124.6639 75° East 447 514 37,000 -639 Level Seattle Center
Wed 07:12:28 PM 46.5125 -124.4922 75° East 443 510 35,700 -2,066 Descending Seattle Center
Wed 07:13:29 PM 46.5439 -124.3158 75° East 450 518 32,800 -2,705 Descending Seattle Center
Wed 07:14:30 PM 46.5800 -124.1064 76° East 447 514 30,200 -2,262 Descending Seattle Center
Wed 07:15:31 PM 46.6092 -123.9408 76° East 432 497 28,200 -1,967 Descending Seattle Center
Wed 07:16:32 PM 46.6364 -123.7806 76° East 415 478 26,200 -2,066 Descending Seattle Center
Wed 07:17:33 PM 46.6639 -123.6250 76° East 405 466 24,000 -1,869 Descending Seattle Center
Wed 07:18:34 PM 46.6892 -123.4708 77° East 400 460 22,400 -1,574 Descending Seattle Center
Wed 07:19:35 PM 46.7142 -123.3217 76° East 389 448 20,800 -1,721 Descending Seattle Center
Wed 07:20:36 PM 46.7381 -123.1700 77° East 387 445 18,900 -1,966 Descending Seattle Center
Wed 07:21:31 PM 46.7628 -123.0244 76° East 372 428 17,000 -2,016 Descending Seattle Center
Wed 07:22:38 PM 46.7886 -122.8625 77° East 363 418 14,800 -1,875 Descending Seattle Center
Wed 07:23:39 PM 46.8114 -122.7242 76° East 351 404 13,000 -1,951 Descending Seattle Center
Wed 07:24:41 PM 46.8711 -122.6342 46° Northeast 311 358 10,800 -1,525 Descending Seattle Center
Wed 07:25:41 PM 46.9378 -122.5397 44° Northeast 310 357 9,900 -1,140 Descending Seattle Center
Wed 07:26:42 PM 46.9961 -122.4625 42° Northeast 280 322 8,500 -1,623 Descending Seattle Center
Wed 07:27:43 PM 47.0592 -122.4056 32° Northeast 267 307 6,600 -1,091 Descending Seattle Center
Wed 07:28:43 PM 47.1175 -122.3542 31° Northeast 235 270 6,300 -595 Descending Seattle Center
Wed 07:29:44 PM 47.1733 -122.3300 16° North 201 231 5,400 -931 Descending Seattle Center
Wed 07:30:39 PM 47.2267 -122.3206 North 201 231 4,500 -1,033 Descending Seattle Center
Wed 07:31:46 PM 47.2886 -122.3192 North 191 220 3,300 -984 Descending Seattle Center
Wed 07:32:47 PM 47.3372 -122.3186 360° North 177 204 2,400 -885 Descending Seattle Center
Wed 07:33:48 PM 47.3819 -122.3200 359° North 155 178 1,500 -836 Descending Seattle Center
Wed 07:34:49 PM 47.4217 -122.3178 North 140 161 700 -581 Descending Seattle Center
Wed 07:35:52 PM 47.4689 -122.3192 359° North 145 167 300 -381 Descending Seattle Center
Wed 07:37:00 PM 47.4499 -122.3118 165° South  Level Estimated

Login

Don't have an account? Register now (free) for customized features, flight alerts, and more!